sensor_id;sensor_type;location;lat;lon;timestamp;P1;durP1;ratioP1;P2;durP2;ratioP2
76903;SDS011;65865;51.698;-0.292;2023-04-03T00:00:31;1.42;;;0.47;;
76903;SDS011;65865;51.698;-0.292;2023-04-03T00:02:57;1.60;;;0.50;;
76903;SDS011;65865;51.698;-0.292;2023-04-03T00:05:23;2.85;;;0.50;;
76903;SDS011;65865;51.698;-0.292;2023-04-03T00:07:49;2.03;;;0.50;;
76903;SDS011;65865;51.698;-0.292;2023-04-03T00:10:15;1.70;;;0.40;;
76903;SDS011;65865;51.698;-0.292;2023-04-03T00:12:42;1.40;;;0.55;;
76903;SDS011;65865;51.698;-0.292;2023-04-03T00:15:08;1.90;;;0.43;;
76903;SDS011;65865;51.698;-0.292;2023-04-03T00:17:34;1.85;;;0.60;;
76903;SDS011;65865;51.698;-0.292;2023-04-03T00:20:00;1.45;;;0.40;;
76903;SDS011;65865;51.698;-0.292;2023-04-03T00:22:26;2.05;;;0.60;;
76903;SDS011;65865;51.698;-0.292;2023-04-03T00:24:55;1.38;;;0.43;;
76903;SDS011;65865;51.698;-0.292;2023-04-03T00:27:22;2.13;;;0.40;;
76903;SDS011;65865;51.698;-0.292;2023-04-03T00:29:48;1.38;;;0.40;;
76903;SDS011;65865;51.698;-0.292;2023-04-03T00:32:14;1.63;;;0.55;;
76903;SDS011;65865;51.698;-0.292;2023-04-03T00:34:40;2.88;;;0.68;;
76903;SDS011;65865;51.698;-0.292;2023-04-03T00:37:06;2.05;;;0.50;;
76903;SDS011;65865;51.698;-0.292;2023-04-03T00:39:32;1.58;;;0.40;;
76903;SDS011;65865;51.698;-0.292;2023-04-03T00:41:58;2.58;;;0.50;;
76903;SDS011;65865;51.698;-0.292;2023-04-03T00:46:53;2.53;;;0.47;;
76903;SDS011;65865;51.698;-0.292;2023-04-03T00:49:19;2.00;;;0.50;;
76903;SDS011;65865;51.698;-0.292;2023-04-03T00:51:45;2.20;;;0.60;;
76903;SDS011;65865;51.698;-0.292;2023-04-03T00:54:11;2.05;;;0.60;;
76903;SDS011;65865;51.698;-0.292;2023-04-03T00:56:38;2.33;;;0.55;;
76903;SDS011;65865;51.698;-0.292;2023-04-03T00:59:06;1.70;;;0.50;;
76903;SDS011;65865;51.698;-0.292;2023-04-03T01:01:33;2.45;;;0.82;;
76903;SDS011;65865;51.698;-0.292;2023-04-03T01:04:00;2.40;;;0.68;;
76903;SDS011;65865;51.698;-0.292;2023-04-03T01:06:28;1.92;;;0.52;;
76903;SDS011;65865;51.698;-0.292;2023-04-03T01:08:56;1.15;;;0.43;;
76903;SDS011;65865;51.698;-0.292;2023-04-03T01:11:23;1.63;;;0.47;;
76903;SDS011;65865;51.698;-0.292;2023-04-03T01:13:49;1.80;;;0.50;;
76903;SDS011;65865;51.698;-0.292;2023-04-03T01:16:15;2.97;;;0.70;;
76903;SDS011;65865;51.698;-0.292;2023-04-03T01:18:41;2.08;;;0.40;;
76903;SDS011;65865;51.698;-0.292;2023-04-03T01:21:11;2.45;;;0.60;;
76903;SDS011;65865;51.698;-0.292;2023-04-03T01:26:26;1.77;;;0.63;;
76903;SDS011;65865;51.698;-0.292;2023-04-03T01:28:53;1.67;;;0.60;;
76903;SDS011;65865;51.698;-0.292;2023-04-03T01:31:27;2.17;;;0.50;;
76903;SDS011;65865;51.698;-0.292;2023-04-03T01:33:55;1.85;;;0.43;;
76903;SDS011;65865;51.698;-0.292;2023-04-03T01:36:28;2.38;;;0.50;;
76903;SDS011;65865;51.698;-0.292;2023-04-03T01:38:55;1.48;;;0.50;;
76903;SDS011;65865;51.698;-0.292;2023-04-03T01:41:21;2.00;;;0.60;;
76903;SDS011;65865;51.698;-0.292;2023-04-03T01:43:48;1.77;;;0.50;;
76903;SDS011;65865;51.698;-0.292;2023-04-03T01:46:16;1.80;;;0.50;;
76903;SDS011;65865;51.698;-0.292;2023-04-03T01:48:42;2.33;;;0.70;;
76903;SDS011;65865;51.698;-0.292;2023-04-03T01:51:08;1.65;;;0.60;;
76903;SDS011;65865;51.698;-0.292;2023-04-03T01:53:34;1.23;;;0.40;;
76903;SDS011;65865;51.698;-0.292;2023-04-03T01:56:00;1.55;;;0.30;;
76903;SDS011;65865;51.698;-0.292;2023-04-03T01:58:26;2.00;;;0.68;;
76903;SDS011;65865;51.698;-0.292;2023-04-03T02:00:52;1.95;;;0.50;;
76903;SDS011;65865;51.698;-0.292;2023-04-03T02:03:18;1.40;;;0.43;;
76903;SDS011;65865;51.698;-0.292;2023-04-03T02:05:45;2.95;;;0.60;;
76903;SDS011;65865;51.698;-0.292;2023-04-03T02:08:11;2.25;;;0.70;;
76903;SDS011;65865;51.698;-0.292;2023-04-03T02:10:38;1.75;;;0.40;;
76903;SDS011;65865;51.698;-0.292;2023-04-03T02:13:04;1.63;;;0.50;;
76903;SDS011;65865;51.698;-0.292;2023-04-03T02:15:30;1.98;;;0.50;;
76903;SDS011;65865;51.698;-0.292;2023-04-03T02:17:56;1.20;;;0.52;;
76903;SDS011;65865;51.698;-0.292;2023-04-03T02:20:22;1.75;;;0.45;;
76903;SDS011;65865;51.698;-0.292;2023-04-03T02:22:48;2.72;;;0.65;;
76903;SDS011;65865;51.698;-0.292;2023-04-03T02:25:14;1.83;;;0.40;;
76903;SDS011;65865;51.698;-0.292;2023-04-03T02:27:40;1.45;;;0.50;;
76903;SDS011;65865;51.698;-0.292;2023-04-03T02:30:06;1.60;;;0.50;;
76903;SDS011;65865;51.698;-0.292;2023-04-03T02:32:36;1.58;;;0.60;;
76903;SDS011;65865;51.698;-0.292;2023-04-03T02:35:02;2.15;;;0.50;;
76903;SDS011;65865;51.698;-0.292;2023-04-03T02:37:28;2.10;;;0.50;;
76903;SDS011;65865;51.698;-0.292;2023-04-03T02:39:54;3.20;;;0.50;;
76903;SDS011;65865;51.698;-0.292;2023-04-03T02:42:20;2.15;;;0.50;;
76903;SDS011;65865;51.698;-0.292;2023-04-03T02:44:46;1.60;;;0.50;;
76903;SDS011;65865;51.698;-0.292;2023-04-03T02:47:12;2.05;;;0.50;;
76903;SDS011;65865;51.698;-0.292;2023-04-03T02:49:38;2.35;;;0.40;;
76903;SDS011;65865;51.698;-0.292;2023-04-03T02:52:04;1.23;;;0.32;;
76903;SDS011;65865;51.698;-0.292;2023-04-03T02:54:30;2.80;;;0.57;;
76903;SDS011;65865;51.698;-0.292;2023-04-03T02:56:56;2.63;;;0.45;;
76903;SDS011;65865;51.698;-0.292;2023-04-03T02:59:23;1.85;;;0.90;;
76903;SDS011;65865;51.698;-0.292;2023-04-03T03:01:49;2.95;;;0.70;;
76903;SDS011;65865;51.698;-0.292;2023-04-03T03:04:15;2.20;;;0.47;;
76903;SDS011;65865;51.698;-0.292;2023-04-03T03:06:41;1.65;;;0.50;;
76903;SDS011;65865;51.698;-0.292;2023-04-03T03:09:07;2.08;;;0.82;;
76903;SDS011;65865;51.698;-0.292;2023-04-03T03:11:33;1.20;;;0.52;;
76903;SDS011;65865;51.698;-0.292;2023-04-03T03:13:59;2.60;;;0.77;;
76903;SDS011;65865;51.698;-0.292;2023-04-03T03:16:25;2.80;;;0.60;;
76903;SDS011;65865;51.698;-0.292;2023-04-03T03:18:51;1.85;;;0.32;;
76903;SDS011;65865;51.698;-0.292;2023-04-03T03:21:17;1.85;;;0.60;;
76903;SDS011;65865;51.698;-0.292;2023-04-03T03:23:43;2.05;;;0.30;;
76903;SDS011;65865;51.698;-0.292;2023-04-03T03:26:10;1.65;;;0.50;;
76903;SDS011;65865;51.698;-0.292;2023-04-03T03:28:36;1.83;;;0.43;;
76903;SDS011;65865;51.698;-0.292;2023-04-03T03:31:02;2.83;;;0.80;;
76903;SDS011;65865;51.698;-0.292;2023-04-03T03:33:29;2.10;;;0.55;;
76903;SDS011;65865;51.698;-0.292;2023-04-03T03:35:55;1.17;;;0.50;;
76903;SDS011;65865;51.698;-0.292;2023-04-03T03:38:21;2.28;;;0.70;;
76903;SDS011;65865;51.698;-0.292;2023-04-03T03:40:47;0.88;;;0.50;;
76903;SDS011;65865;51.698;-0.292;2023-04-03T03:43:14;1.48;;;0.40;;
76903;SDS011;65865;51.698;-0.292;2023-04-03T03:45:40;1.95;;;0.70;;
76903;SDS011;65865;51.698;-0.292;2023-04-03T03:48:06;2.38;;;0.40;;
76903;SDS011;65865;51.698;-0.292;2023-04-03T03:50:32;1.80;;;0.60;;
76903;SDS011;65865;51.698;-0.292;2023-04-03T03:52:58;1.48;;;0.40;;
76903;SDS011;65865;51.698;-0.292;2023-04-03T03:55:24;1.20;;;0.45;;
76903;SDS011;65865;51.698;-0.292;2023-04-03T03:57:51;2.10;;;0.45;;
76903;SDS011;65865;51.698;-0.292;2023-04-03T04:00:17;2.30;;;0.43;;
76903;SDS011;65865;51.698;-0.292;2023-04-03T04:02:45;1.05;;;0.45;;
76903;SDS011;65865;51.698;-0.292;2023-04-03T04:05:11;1.90;;;0.60;;
76903;SDS011;65865;51.698;-0.292;2023-04-03T04:07:37;1.95;;;0.57;;
76903;SDS011;65865;51.698;-0.292;2023-04-03T04:10:04;1.80;;;0.50;;
76903;SDS011;65865;51.698;-0.292;2023-04-03T04:12:30;1.10;;;0.43;;
76903;SDS011;65865;51.698;-0.292;2023-04-03T04:14:56;2.67;;;0.75;;
76903;SDS011;65865;51.698;-0.292;2023-04-03T04:17:22;1.77;;;0.70;;
76903;SDS011;65865;51.698;-0.292;2023-04-03T04:19:48;2.70;;;0.63;;
76903;SDS011;65865;51.698;-0.292;2023-04-03T04:22:14;1.40;;;0.40;;
76903;SDS011;65865;51.698;-0.292;2023-04-03T04:24:40;1.30;;;0.38;;
76903;SDS011;65865;51.698;-0.292;2023-04-03T04:27:06;1.10;;;0.50;;
76903;SDS011;65865;51.698;-0.292;2023-04-03T04:29:32;2.45;;;0.32;;
76903;SDS011;65865;51.698;-0.292;2023-04-03T04:32:01;1.55;;;0.40;;
76903;SDS011;65865;51.698;-0.292;2023-04-03T04:34:27;1.63;;;0.38;;
76903;SDS011;65865;51.698;-0.292;2023-04-03T04:36:54;2.38;;;0.50;;
76903;SDS011;65865;51.698;-0.292;2023-04-03T04:39:20;1.60;;;0.52;;
76903;SDS011;65865;51.698;-0.292;2023-04-03T04:41:46;1.88;;;0.55;;
76903;SDS011;65865;51.698;-0.292;2023-04-03T04:44:13;1.27;;;0.40;;
76903;SDS011;65865;51.698;-0.292;2023-04-03T04:46:39;1.10;;;0.30;;
76903;SDS011;65865;51.698;-0.292;2023-04-03T04:49:05;1.77;;;0.30;;
76903;SDS011;65865;51.698;-0.292;2023-04-03T04:51:31;1.27;;;0.22;;
76903;SDS011;65865;51.698;-0.292;2023-04-03T04:53:57;1.92;;;0.43;;
76903;SDS011;65865;51.698;-0.292;2023-04-03T04:56:23;0.80;;;0.30;;
76903;SDS011;65865;51.698;-0.292;2023-04-03T04:58:50;0.98;;;0.40;;
76903;SDS011;65865;51.698;-0.292;2023-04-03T05:01:16;1.67;;;0.45;;
76903;SDS011;65865;51.698;-0.292;2023-04-03T05:03:45;2.13;;;0.43;;
76903;SDS011;65865;51.698;-0.292;2023-04-03T05:06:12;1.17;;;0.43;;
76903;SDS011;65865;51.698;-0.292;2023-04-03T05:08:39;1.13;;;0.30;;
76903;SDS011;65865;51.698;-0.292;2023-04-03T05:11:05;1.35;;;0.60;;
76903;SDS011;65865;51.698;-0.292;2023-04-03T05:13:31;0.85;;;0.32;;
76903;SDS011;65865;51.698;-0.292;2023-04-03T05:15:57;1.25;;;0.40;;
76903;SDS011;65865;51.698;-0.292;2023-04-03T05:18:23;2.08;;;0.32;;
76903;SDS011;65865;51.698;-0.292;2023-04-03T05:20:50;0.70;;;0.30;;
76903;SDS011;65865;51.698;-0.292;2023-04-03T05:23:16;1.52;;;0.30;;
76903;SDS011;65865;51.698;-0.292;2023-04-03T05:25:42;1.15;;;0.35;;
76903;SDS011;65865;51.698;-0.292;2023-04-03T05:28:22;1.48;;;0.43;;
76903;SDS011;65865;51.698;-0.292;2023-04-03T05:30:55;1.63;;;0.50;;
76903;SDS011;65865;51.698;-0.292;2023-04-03T05:33:22;1.25;;;0.60;;
76903;SDS011;65865;51.698;-0.292;2023-04-03T05:35:48;1.52;;;0.30;;
76903;SDS011;65865;51.698;-0.292;2023-04-03T05:38:14;1.23;;;0.40;;
76903;SDS011;65865;51.698;-0.292;2023-04-03T05:40:40;1.25;;;0.30;;
76903;SDS011;65865;51.698;-0.292;2023-04-03T05:43:06;3.22;;;0.60;;
76903;SDS011;65865;51.698;-0.292;2023-04-03T05:45:32;1.73;;;0.43;;
76903;SDS011;65865;51.698;-0.292;2023-04-03T05:47:58;1.67;;;0.30;;
76903;SDS011;65865;51.698;-0.292;2023-04-03T05:50:25;1.23;;;0.40;;
76903;SDS011;65865;51.698;-0.292;2023-04-03T05:52:51;0.73;;;0.47;;
76903;SDS011;65865;51.698;-0.292;2023-04-03T05:55:18;1.85;;;0.57;;
76903;SDS011;65865;51.698;-0.292;2023-04-03T05:57:44;1.75;;;0.60;;
76903;SDS011;65865;51.698;-0.292;2023-04-03T06:00:12;1.80;;;0.40;;
76903;SDS011;65865;51.698;-0.292;2023-04-03T06:02:48;1.55;;;0.40;;
76903;SDS011;65865;51.698;-0.292;2023-04-03T06:05:14;0.85;;;0.40;;
76903;SDS011;65865;51.698;-0.292;2023-04-03T06:07:40;1.55;;;0.50;;
76903;SDS011;65865;51.698;-0.292;2023-04-03T06:10:06;1.17;;;0.40;;
76903;SDS011;65865;51.698;-0.292;2023-04-03T06:12:33;1.90;;;0.50;;
76903;SDS011;65865;51.698;-0.292;2023-04-03T06:15:00;1.00;;;0.30;;
76903;SDS011;65865;51.698;-0.292;2023-04-03T06:17:27;1.40;;;0.30;;
76903;SDS011;65865;51.698;-0.292;2023-04-03T06:19:53;1.08;;;0.35;;
76903;SDS011;65865;51.698;-0.292;2023-04-03T06:22:19;2.42;;;0.45;;
76903;SDS011;65865;51.698;-0.292;2023-04-03T06:24:46;1.63;;;0.32;;
76903;SDS011;65865;51.698;-0.292;2023-04-03T06:27:12;1.42;;;0.50;;
76903;SDS011;65865;51.698;-0.292;2023-04-03T06:29:38;1.52;;;0.40;;
76903;SDS011;65865;51.698;-0.292;2023-04-03T06:32:04;1.63;;;0.57;;
76903;SDS011;65865;51.698;-0.292;2023-04-03T06:34:30;1.17;;;0.40;;
76903;SDS011;65865;51.698;-0.292;2023-04-03T06:36:58;1.38;;;0.52;;
76903;SDS011;65865;51.698;-0.292;2023-04-03T06:39:24;1.73;;;0.50;;
76903;SDS011;65865;51.698;-0.292;2023-04-03T06:41:50;2.78;;;0.50;;
76903;SDS011;65865;51.698;-0.292;2023-04-03T06:44:16;0.95;;;0.32;;
76903;SDS011;65865;51.698;-0.292;2023-04-03T06:46:43;1.15;;;0.30;;
76903;SDS011;65865;51.698;-0.292;2023-04-03T06:49:11;1.75;;;0.43;;
76903;SDS011;65865;51.698;-0.292;2023-04-03T06:51:37;1.50;;;0.40;;
76903;SDS011;65865;51.698;-0.292;2023-04-03T06:54:04;0.98;;;0.30;;
76903;SDS011;65865;51.698;-0.292;2023-04-03T06:56:31;1.25;;;0.40;;
76903;SDS011;65865;51.698;-0.292;2023-04-03T06:58:57;2.33;;;0.40;;
76903;SDS011;65865;51.698;-0.292;2023-04-03T07:01:24;1.45;;;0.40;;
76903;SDS011;65865;51.698;-0.292;2023-04-03T07:03:51;1.50;;;0.30;;
76903;SDS011;65865;51.698;-0.292;2023-04-03T07:06:17;1.15;;;0.40;;
76903;SDS011;65865;51.698;-0.292;2023-04-03T07:08:44;12.75;;;0.75;;
76903;SDS011;65865;51.698;-0.292;2023-04-03T07:11:10;3.75;;;0.57;;
76903;SDS011;65865;51.698;-0.292;2023-04-03T07:13:36;1.85;;;0.40;;
76903;SDS011;65865;51.698;-0.292;2023-04-03T07:16:03;1.15;;;0.40;;
76903;SDS011;65865;51.698;-0.292;2023-04-03T07:18:30;2.88;;;0.57;;
76903;SDS011;65865;51.698;-0.292;2023-04-03T07:20:58;2.75;;;0.60;;
76903;SDS011;65865;51.698;-0.292;2023-04-03T07:23:27;2.85;;;0.57;;
76903;SDS011;65865;51.698;-0.292;2023-04-03T07:25:55;2.17;;;0.40;;
76903;SDS011;65865;51.698;-0.292;2023-04-03T07:28:22;2.90;;;0.43;;
76903;SDS011;65865;51.698;-0.292;2023-04-03T07:30:50;1.67;;;0.40;;
76903;SDS011;65865;51.698;-0.292;2023-04-03T07:33:17;2.60;;;0.40;;
76903;SDS011;65865;51.698;-0.292;2023-04-03T07:35:44;1.83;;;0.45;;
76903;SDS011;65865;51.698;-0.292;2023-04-03T07:38:12;2.47;;;0.50;;
76903;SDS011;65865;51.698;-0.292;2023-04-03T07:40:49;1.20;;;0.40;;
76903;SDS011;65865;51.698;-0.292;2023-04-03T07:43:18;2.83;;;0.52;;
76903;SDS011;65865;51.698;-0.292;2023-04-03T07:45:45;1.80;;;0.40;;
76903;SDS011;65865;51.698;-0.292;2023-04-03T07:48:14;1.85;;;0.35;;
76903;SDS011;65865;51.698;-0.292;2023-04-03T07:50:42;1.40;;;0.38;;
76903;SDS011;65865;51.698;-0.292;2023-04-03T07:53:08;1.38;;;0.45;;
76903;SDS011;65865;51.698;-0.292;2023-04-03T07:55:36;1.15;;;0.43;;
76903;SDS011;65865;51.698;-0.292;2023-04-03T07:58:08;1.23;;;0.40;;
76903;SDS011;65865;51.698;-0.292;2023-04-03T08:00:37;0.98;;;0.30;;
76903;SDS011;65865;51.698;-0.292;2023-04-03T08:03:05;2.10;;;0.50;;
76903;SDS011;65865;51.698;-0.292;2023-04-03T08:05:36;2.72;;;0.50;;
76903;SDS011;65865;51.698;-0.292;2023-04-03T08:08:02;1.42;;;0.63;;
76903;SDS011;65865;51.698;-0.292;2023-04-03T08:10:29;2.08;;;0.70;;
76903;SDS011;65865;51.698;-0.292;2023-04-03T08:12:55;0.75;;;0.32;;
76903;SDS011;65865;51.698;-0.292;2023-04-03T08:15:21;2.58;;;0.50;;
76903;SDS011;65865;51.698;-0.292;2023-04-03T08:17:48;1.73;;;0.40;;
76903;SDS011;65865;51.698;-0.292;2023-04-03T08:20:14;2.40;;;0.30;;
76903;SDS011;65865;51.698;-0.292;2023-04-03T08:22:40;2.38;;;0.50;;
76903;SDS011;65865;51.698;-0.292;2023-04-03T08:25:06;1.00;;;0.30;;
76903;SDS011;65865;51.698;-0.292;2023-04-03T08:27:36;1.30;;;0.47;;
76903;SDS011;65865;51.698;-0.292;2023-04-03T08:30:05;2.20;;;0.40;;
76903;SDS011;65865;51.698;-0.292;2023-04-03T08:32:37;1.45;;;0.47;;
76903;SDS011;65865;51.698;-0.292;2023-04-03T08:35:03;2.08;;;0.50;;
76903;SDS011;65865;51.698;-0.292;2023-04-03T08:37:30;1.35;;;0.73;;
76903;SDS011;65865;51.698;-0.292;2023-04-03T08:39:56;2.65;;;0.50;;
76903;SDS011;65865;51.698;-0.292;2023-04-03T08:47:55;2.15;;;0.43;;
76903;SDS011;65865;51.698;-0.292;2023-04-03T08:50:30;2.00;;;0.40;;
76903;SDS011;65865;51.698;-0.292;2023-04-03T08:52:58;1.25;;;0.70;;
76903;SDS011;65865;51.698;-0.292;2023-04-03T08:55:42;0.95;;;0.30;;
76903;SDS011;65865;51.698;-0.292;2023-04-03T08:58:12;1.65;;;0.40;;
76903;SDS011;65865;51.698;-0.292;2023-04-03T09:00:51;1.33;;;0.30;;
76903;SDS011;65865;51.698;-0.292;2023-04-03T09:03:20;2.05;;;0.40;;
76903;SDS011;65865;51.698;-0.292;2023-04-03T09:10:42;1.40;;;0.40;;
76903;SDS011;65865;51.698;-0.292;2023-04-03T09:15:38;1.95;;;0.35;;
76903;SDS011;65865;51.698;-0.292;2023-04-03T09:18:13;3.28;;;0.50;;
76903;SDS011;65865;51.698;-0.292;2023-04-03T09:23:49;3.90;;;0.57;;
76903;SDS011;65865;51.698;-0.292;2023-04-03T09:28:52;5.45;;;1.05;;
76903;SDS011;65865;51.698;-0.292;2023-04-03T09:31:29;5.25;;;1.25;;
76903;SDS011;65865;51.698;-0.292;2023-04-03T09:33:59;6.00;;;1.15;;
76903;SDS011;65865;51.698;-0.292;2023-04-03T09:36:37;5.40;;;1.02;;
76903;SDS011;65865;51.698;-0.292;2023-04-03T09:39:05;5.82;;;1.30;;
76903;SDS011;65865;51.698;-0.292;2023-04-03T09:41:32;5.82;;;1.00;;
76903;SDS011;65865;51.698;-0.292;2023-04-03T09:43:58;5.50;;;1.23;;
76903;SDS011;65865;51.698;-0.292;2023-04-03T09:46:32;5.30;;;1.13;;
76903;SDS011;65865;51.698;-0.292;2023-04-03T09:49:08;5.50;;;1.05;;
76903;SDS011;65865;51.698;-0.292;2023-04-03T09:51:40;4.03;;;1.05;;
76903;SDS011;65865;51.698;-0.292;2023-04-03T09:54:29;5.72;;;1.52;;
76903;SDS011;65865;51.698;-0.292;2023-04-03T09:56:56;4.00;;;1.13;;
76903;SDS011;65865;51.698;-0.292;2023-04-03T09:59:24;4.45;;;0.98;;
76903;SDS011;65865;51.698;-0.292;2023-04-03T10:02:02;4.68;;;1.50;;
76903;SDS011;65865;51.698;-0.292;2023-04-03T10:04:41;7.07;;;1.45;;
76903;SDS011;65865;51.698;-0.292;2023-04-03T10:12:42;8.07;;;1.52;;
76903;SDS011;65865;51.698;-0.292;2023-04-03T10:15:15;7.97;;;1.70;;
76903;SDS011;65865;51.698;-0.292;2023-04-03T10:18:02;6.80;;;1.50;;
76903;SDS011;65865;51.698;-0.292;2023-04-03T10:23:15;8.80;;;1.27;;
76903;SDS011;65865;51.698;-0.292;2023-04-03T10:28:35;11.77;;;1.27;;
76903;SDS011;65865;51.698;-0.292;2023-04-03T10:31:13;17.75;;;2.50;;
76903;SDS011;65865;51.698;-0.292;2023-04-03T10:36:23;4.13;;;1.20;;
76903;SDS011;65865;51.698;-0.292;2023-04-03T10:38:54;6.20;;;1.42;;
76903;SDS011;65865;51.698;-0.292;2023-04-03T10:41:27;9.88;;;2.30;;
76903;SDS011;65865;51.698;-0.292;2023-04-03T10:44:31;3.30;;;1.20;;
76903;SDS011;65865;51.698;-0.292;2023-04-03T10:46:52;4.10;;;1.13;;
76903;SDS011;65865;51.698;-0.292;2023-04-03T10:51:45;5.55;;;1.17;;
76903;SDS011;65865;51.698;-0.292;2023-04-03T10:54:16;5.03;;;1.00;;
76903;SDS011;65865;51.698;-0.292;2023-04-03T10:56:48;3.55;;;1.02;;
76903;SDS011;65865;51.698;-0.292;2023-04-03T10:59:32;3.63;;;0.98;;
76903;SDS011;65865;51.698;-0.292;2023-04-03T11:02:01;4.72;;;1.25;;
76903;SDS011;65865;51.698;-0.292;2023-04-03T11:04:30;4.50;;;0.90;;
76903;SDS011;65865;51.698;-0.292;2023-04-03T11:07:01;3.65;;;1.02;;
76903;SDS011;65865;51.698;-0.292;2023-04-03T11:09:29;3.05;;;0.52;;
76903;SDS011;65865;51.698;-0.292;2023-04-03T11:12:01;3.63;;;0.73;;
76903;SDS011;65865;51.698;-0.292;2023-04-03T11:14:32;3.38;;;0.63;;
76903;SDS011;65865;51.698;-0.292;2023-04-03T11:24:37;1.98;;;0.60;;
76903;SDS011;65865;51.698;-0.292;2023-04-03T11:34:40;3.17;;;0.68;;
76903;SDS011;65865;51.698;-0.292;2023-04-03T11:37:12;3.53;;;0.50;;
76903;SDS011;65865;51.698;-0.292;2023-04-03T11:39:52;3.42;;;0.80;;
76903;SDS011;65865;51.698;-0.292;2023-04-03T11:44:51;2.78;;;0.70;;
76903;SDS011;65865;51.698;-0.292;2023-04-03T11:47:45;2.60;;;0.85;;
76903;SDS011;65865;51.698;-0.292;2023-04-03T12:16:06;4.22;;;0.80;;
76903;SDS011;65865;51.698;-0.292;2023-04-03T12:18:43;1.70;;;0.60;;
76903;SDS011;65865;51.698;-0.292;2023-04-03T12:21:11;7.55;;;0.90;;
76903;SDS011;65865;51.698;-0.292;2023-04-03T12:23:55;3.75;;;0.80;;
76903;SDS011;65865;51.698;-0.292;2023-04-03T12:26:22;4.28;;;0.65;;
76903;SDS011;65865;51.698;-0.292;2023-04-03T12:28:51;4.35;;;0.80;;
76903;SDS011;65865;51.698;-0.292;2023-04-03T12:31:18;2.92;;;0.80;;
76903;SDS011;65865;51.698;-0.292;2023-04-03T12:39:11;2.35;;;0.88;;
76903;SDS011;65865;51.698;-0.292;2023-04-03T12:41:56;3.33;;;1.02;;
76903;SDS011;65865;51.698;-0.292;2023-04-03T12:44:35;2.88;;;0.70;;
76903;SDS011;65865;51.698;-0.292;2023-04-03T12:47:16;3.08;;;0.82;;
76903;SDS011;65865;51.698;-0.292;2023-04-03T12:49:45;4.25;;;0.90;;
76903;SDS011;65865;51.698;-0.292;2023-04-03T12:52:19;2.45;;;0.63;;
76903;SDS011;65865;51.698;-0.292;2023-04-03T12:54:47;3.15;;;0.77;;
76903;SDS011;65865;51.698;-0.292;2023-04-03T12:57:20;2.25;;;0.70;;
76903;SDS011;65865;51.698;-0.292;2023-04-03T12:59:47;2.90;;;0.80;;
76903;SDS011;65865;51.698;-0.292;2023-04-03T13:04:43;3.53;;;0.95;;
76903;SDS011;65865;51.698;-0.292;2023-04-03T13:07:23;2.50;;;0.70;;
76903;SDS011;65865;51.698;-0.292;2023-04-03T13:12:28;3.83;;;0.70;;
76903;SDS011;65865;51.698;-0.292;2023-04-03T13:14:56;3.17;;;0.63;;
76903;SDS011;65865;51.698;-0.292;2023-04-03T13:17:23;4.30;;;0.70;;
76903;SDS011;65865;51.698;-0.292;2023-04-03T13:19:49;3.22;;;0.70;;
76903;SDS011;65865;51.698;-0.292;2023-04-03T13:22:30;2.85;;;0.60;;
76903;SDS011;65865;51.698;-0.292;2023-04-03T13:24:58;1.80;;;0.60;;
76903;SDS011;65865;51.698;-0.292;2023-04-03T13:27:25;2.67;;;0.70;;
76903;SDS011;65865;51.698;-0.292;2023-04-03T13:29:52;3.58;;;1.10;;
76903;SDS011;65865;51.698;-0.292;2023-04-03T13:32:20;1.98;;;0.65;;
76903;SDS011;65865;51.698;-0.292;2023-04-03T13:34:47;2.50;;;0.60;;
76903;SDS011;65865;51.698;-0.292;2023-04-03T13:37:23;2.55;;;0.80;;
76903;SDS011;65865;51.698;-0.292;2023-04-03T13:42:34;3.22;;;0.80;;
76903;SDS011;65865;51.698;-0.292;2023-04-03T13:45:18;2.45;;;0.50;;
76903;SDS011;65865;51.698;-0.292;2023-04-03T13:47:46;3.25;;;0.65;;
76903;SDS011;65865;51.698;-0.292;2023-04-03T13:52:40;1.85;;;0.47;;
76903;SDS011;65865;51.698;-0.292;2023-04-03T13:55:24;2.78;;;0.82;;
76903;SDS011;65865;51.698;-0.292;2023-04-03T14:00:22;6.65;;;1.02;;
76903;SDS011;65865;51.698;-0.292;2023-04-03T14:02:54;2.60;;;0.70;;
76903;SDS011;65865;51.698;-0.292;2023-04-03T14:07:53;2.90;;;0.55;;
76903;SDS011;65865;51.698;-0.292;2023-04-03T14:10:19;1.75;;;0.60;;
76903;SDS011;65865;51.698;-0.292;2023-04-03T14:12:45;2.42;;;0.82;;
76903;SDS011;65865;51.698;-0.292;2023-04-03T14:15:16;4.10;;;0.63;;
76903;SDS011;65865;51.698;-0.292;2023-04-03T14:17:45;2.30;;;0.68;;
76903;SDS011;65865;51.698;-0.292;2023-04-03T14:20:16;3.20;;;0.88;;
76903;SDS011;65865;51.698;-0.292;2023-04-03T14:22:42;2.25;;;0.50;;
76903;SDS011;65865;51.698;-0.292;2023-04-03T14:25:09;2.65;;;0.55;;
76903;SDS011;65865;51.698;-0.292;2023-04-03T14:27:38;2.47;;;0.50;;
76903;SDS011;65865;51.698;-0.292;2023-04-03T14:30:06;2.17;;;0.50;;
76903;SDS011;65865;51.698;-0.292;2023-04-03T14:32:32;1.60;;;0.52;;
76903;SDS011;65865;51.698;-0.292;2023-04-03T14:34:58;1.55;;;0.65;;
76903;SDS011;65865;51.698;-0.292;2023-04-03T14:37:26;4.53;;;0.65;;
76903;SDS011;65865;51.698;-0.292;2023-04-03T14:39:53;2.10;;;0.50;;
76903;SDS011;65865;51.698;-0.292;2023-04-03T14:42:21;1.38;;;0.40;;
76903;SDS011;65865;51.698;-0.292;2023-04-03T14:44:47;4.30;;;0.82;;
76903;SDS011;65865;51.698;-0.292;2023-04-03T14:47:14;2.15;;;0.55;;
76903;SDS011;65865;51.698;-0.292;2023-04-03T14:49:41;2.70;;;0.40;;
76903;SDS011;65865;51.698;-0.292;2023-04-03T14:52:15;2.95;;;0.65;;
76903;SDS011;65865;51.698;-0.292;2023-04-03T14:54:43;8.25;;;0.75;;
76903;SDS011;65865;51.698;-0.292;2023-04-03T14:57:09;4.25;;;0.90;;
76903;SDS011;65865;51.698;-0.292;2023-04-03T14:59:36;4.43;;;0.90;;
76903;SDS011;65865;51.698;-0.292;2023-04-03T15:02:02;4.68;;;0.80;;
76903;SDS011;65865;51.698;-0.292;2023-04-03T15:04:31;4.53;;;0.70;;
76903;SDS011;65865;51.698;-0.292;2023-04-03T15:06:57;4.20;;;1.02;;
76903;SDS011;65865;51.698;-0.292;2023-04-03T15:09:25;7.85;;;1.80;;
76903;SDS011;65865;51.698;-0.292;2023-04-03T15:11:52;10.63;;;3.15;;
76903;SDS011;65865;51.698;-0.292;2023-04-03T15:14:19;15.45;;;5.13;;
76903;SDS011;65865;51.698;-0.292;2023-04-03T15:16:45;19.20;;;6.22;;
76903;SDS011;65865;51.698;-0.292;2023-04-03T15:19:11;16.60;;;5.85;;
76903;SDS011;65865;51.698;-0.292;2023-04-03T15:21:38;21.38;;;6.57;;
76903;SDS011;65865;51.698;-0.292;2023-04-03T15:24:04;17.23;;;6.45;;
76903;SDS011;65865;51.698;-0.292;2023-04-03T15:26:31;16.23;;;5.28;;
76903;SDS011;65865;51.698;-0.292;2023-04-03T15:28:58;16.17;;;4.50;;
76903;SDS011;65865;51.698;-0.292;2023-04-03T15:31:24;13.73;;;5.05;;
76903;SDS011;65865;51.698;-0.292;2023-04-03T15:33:52;15.32;;;4.45;;
76903;SDS011;65865;51.698;-0.292;2023-04-03T15:36:18;14.10;;;4.38;;
76903;SDS011;65865;51.698;-0.292;2023-04-03T15:38:44;15.25;;;4.90;;
76903;SDS011;65865;51.698;-0.292;2023-04-03T15:41:10;17.23;;;5.00;;
76903;SDS011;65865;51.698;-0.292;2023-04-03T15:43:36;13.88;;;4.40;;
76903;SDS011;65865;51.698;-0.292;2023-04-03T15:46:03;12.93;;;3.97;;
76903;SDS011;65865;51.698;-0.292;2023-04-03T15:48:29;12.93;;;3.67;;
76903;SDS011;65865;51.698;-0.292;2023-04-03T15:50:55;9.30;;;3.05;;
76903;SDS011;65865;51.698;-0.292;2023-04-03T15:53:21;10.95;;;3.45;;
76903;SDS011;65865;51.698;-0.292;2023-04-03T15:55:47;12.57;;;2.95;;
76903;SDS011;65865;51.698;-0.292;2023-04-03T15:58:13;8.43;;;2.58;;
76903;SDS011;65865;51.698;-0.292;2023-04-03T16:00:39;8.27;;;3.00;;
76903;SDS011;65865;51.698;-0.292;2023-04-03T16:03:08;9.65;;;2.22;;
76903;SDS011;65865;51.698;-0.292;2023-04-03T16:05:35;8.35;;;2.53;;
76903;SDS011;65865;51.698;-0.292;2023-04-03T16:08:02;7.50;;;2.25;;
76903;SDS011;65865;51.698;-0.292;2023-04-03T16:10:28;6.22;;;2.03;;
76903;SDS011;65865;51.698;-0.292;2023-04-03T16:12:55;7.55;;;2.22;;
76903;SDS011;65865;51.698;-0.292;2023-04-03T16:15:21;5.90;;;1.83;;
76903;SDS011;65865;51.698;-0.292;2023-04-03T16:17:47;5.07;;;1.83;;
76903;SDS011;65865;51.698;-0.292;2023-04-03T16:20:14;3.53;;;1.08;;
76903;SDS011;65865;51.698;-0.292;2023-04-03T16:22:40;5.57;;;1.38;;